SCVM 220600Z 00000KT CAVOK 05/03 Q1022